Terminal Aerodrome Forecast
Issued by NWS Wilmington, OH

Current Version | Previous Version | Text Only | Print | Product List | Glossary Off
Versions: 1 2 3 4 5 6 7 8 9 10 11 12 13

966
FTUS41 KILN 211733 AAB
TAFCMH
TAF AMD
KCMH 211733Z 2118/2218 34006KT P6SM SCT025
     FM212100 31009KT P6SM BKN200
     FM212300 31010KT P6SM BKN060 OVC120
     FM220400 34014KT P6SM SCT250
     FM221200 01011KT P6SM FEW250=

USA.gov is the U.S. government's official web portal to all federal, state and local government web resources and services.